Time;durP1;ratioP1;P1;durP2;ratioP2;P2;SDS_P1;SDS_P2;PMS_P1;PMS_P2;Temp;Humidity;BMP_temperature;BMP_pressure;BME280_temperature;BME280_humidity;BME280_pressure;Samples;Min_cycle;Max_cycle;Signal;HPM_P1;HPM_P2
2021/09/18 00:00:20;;;;;;;4.05;1.23;;;13.30;99.90;;;;;;4889038;29;20073;-77
2021/09/18 00:02:45;;;;;;;1.85;0.98;;;13.30;99.90;;;;;;4889203;29;20037;-78
2021/09/18 00:05:12;;;;;;;1.75;0.98;;;13.40;99.90;;;;;;4890077;29;20029;-77
2021/09/18 00:07:38;;;;;;;5.18;1.08;;;13.30;99.90;;;;;;4889027;29;20185;-76
2021/09/18 00:10:05;;;;;;;1.73;1.05;;;13.30;99.90;;;;;;4888870;29;20402;-74
2021/09/18 00:12:31;;;;;;;3.58;0.55;;;13.30;99.90;;;;;;4889777;29;20088;-74
2021/09/18 00:14:57;;;;;;;1.77;0.70;;;13.30;99.90;;;;;;4890205;29;20036;-76
2021/09/18 00:17:22;;;;;;;0.85;0.60;;;13.20;99.90;;;;;;4890338;29;20025;-75
2021/09/18 00:19:48;;;;;;;0.60;0.50;;;13.20;99.90;;;;;;4890008;29;20125;-76
2021/09/18 00:22:14;;;;;;;4.03;0.82;;;13.20;99.90;;;;;;4889145;29;20037;-77
2021/09/18 00:24:39;;;;;;;9.65;0.60;;;13.20;99.90;;;;;;4888582;29;20037;-76
2021/09/18 00:27:05;;;;;;;3.70;0.73;;;13.10;99.90;;;;;;4888699;29;20031;-77
2021/09/18 00:29:31;;;;;;;1.90;0.90;;;13.10;99.90;;;;;;4890103;29;20033;-78
2021/09/18 00:31:56;;;;;;;1.05;0.82;;;13.20;99.90;;;;;;4890631;29;20033;-75
2021/09/18 00:34:22;;;;;;;0.70;0.57;;;13.20;99.90;;;;;;4893311;29;20033;-75
2021/09/18 00:36:48;;;;;;;4.55;0.85;;;13.10;99.90;;;;;;4893538;29;20072;-75
2021/09/18 00:39:14;;;;;;;1.10;0.73;;;13.10;99.90;;;;;;4892104;29;20080;-77
2021/09/18 00:41:40;;;;;;;2.58;0.90;;;13.10;99.90;;;;;;4893177;29;20118;-77
2021/09/18 00:44:06;;;;;;;1.45;1.00;;;13.10;99.90;;;;;;4893646;29;20059;-79
2021/09/18 00:46:31;;;;;;;1.25;0.80;;;13.10;99.90;;;;;;4891961;29;20029;-77
2021/09/18 00:48:57;;;;;;;2.80;1.05;;;13.10;99.90;;;;;;4893245;29;20037;-77
2021/09/18 00:51:23;;;;;;;1.70;0.88;;;13.10;99.90;;;;;;4893422;29;20108;-77
2021/09/18 00:53:49;;;;;;;2.85;1.20;;;13.10;99.90;;;;;;4891758;29;20474;-76
2021/09/18 00:56:18;;;;;;;2.20;1.48;;;13.10;99.90;;;;;;4893230;29;20041;-75
2021/09/18 00:58:44;;;;;;;2.88;0.93;;;13.10;99.90;;;;;;4893402;29;20096;-77
2021/09/18 01:01:10;;;;;;;1.85;0.90;;;13.10;99.90;;;;;;4893023;29;20040;-78
2021/09/18 01:03:36;;;;;;;1.95;1.10;;;13.10;99.90;;;;;;4892988;29;20049;-77
2021/09/18 01:06:01;;;;;;;3.30;1.00;;;13.20;99.90;;;;;;4893008;29;20037;-76
2021/09/18 01:08:28;;;;;;;1.80;0.93;;;13.20;99.90;;;;;;4891499;29;20033;-81
2021/09/18 01:10:54;;;;;;;2.75;1.25;;;13.10;99.90;;;;;;4891463;29;20021;-77
2021/09/18 01:13:20;;;;;;;2.13;1.33;;;13.20;99.90;;;;;;4893037;29;20044;-77
2021/09/18 01:15:49;;;;;;;3.90;1.33;;;13.20;99.90;;;;;;4892647;29;20034;-77
2021/09/18 01:18:16;;;;;;;2.95;0.80;;;13.20;99.90;;;;;;4891026;29;20052;-77
2021/09/18 01:20:44;;;;;;;3.15;1.13;;;13.10;99.90;;;;;;4892895;29;20041;-76
2021/09/18 01:23:10;;;;;;;1.83;1.15;;;13.10;99.90;;;;;;4892462;29;20021;-76
2021/09/18 01:25:38;;;;;;;2.35;1.30;;;13.10;99.90;;;;;;4891428;29;20033;-75
2021/09/18 01:28:06;;;;;;;2.30;1.13;;;13.00;99.90;;;;;;4892606;29;20032;-76
2021/09/18 01:30:33;;;;;;;1.90;0.93;;;13.10;99.90;;;;;;4890930;29;20471;-80
2021/09/18 01:33:01;;;;;;;3.03;1.15;;;13.10;99.90;;;;;;4892825;29;20482;-78
2021/09/18 01:35:27;;;;;;;2.58;1.48;;;13.10;99.90;;;;;;4891085;29;20076;-77
2021/09/18 01:37:53;;;;;;;1.55;0.88;;;13.10;99.90;;;;;;4892203;29;20033;-78
2021/09/18 01:40:31;;;;;;;2.88;1.48;;;13.00;99.90;;;;;;4890777;29;20099;-77
2021/09/18 01:42:58;;;;;;;1.73;1.13;;;13.00;99.90;;;;;;4890488;29;20044;-78
2021/09/18 01:45:23;;;;;;;2.58;1.33;;;13.00;99.90;;;;;;4890946;29;20029;-77
2021/09/18 01:47:56;;;;;;;3.17;1.60;;;13.00;99.90;;;;;;4892758;29;20040;-78
2021/09/18 01:50:24;;;;;;;1.65;1.00;;;13.10;99.90;;;;;;4890706;29;20029;-79
2021/09/18 01:52:55;;;;;;;3.92;1.50;;;12.90;99.90;;;;;;4892705;29;20085;-81
2021/09/18 01:55:20;;;;;;;4.88;1.40;;;13.00;99.90;;;;;;4891063;29;20033;-76
2021/09/18 01:57:51;;;;;;;2.45;1.08;;;12.90;99.90;;;;;;4892138;29;20058;-79
2021/09/18 02:00:18;;;;;;;2.28;1.13;;;12.90;99.90;;;;;;4892351;29;20033;-77
2021/09/18 02:02:44;;;;;;;5.05;1.23;;;12.80;99.90;;;;;;4892377;29;20107;-80
2021/09/18 02:05:12;;;;;;;1.40;0.90;;;12.80;99.90;;;;;;4890468;29;20043;-77
2021/09/18 02:07:37;;;;;;;1.42;0.90;;;12.80;99.90;;;;;;4892070;29;20044;-76
2021/09/18 02:10:08;;;;;;;2.10;1.10;;;12.80;99.90;;;;;;4891627;29;20029;-77
2021/09/18 02:12:34;;;;;;;1.63;1.08;;;12.70;99.90;;;;;;4891964;29;20116;-77
2021/09/18 02:15:00;;;;;;;2.60;1.10;;;12.70;99.90;;;;;;4892046;29;20029;-76
2021/09/18 02:17:26;;;;;;;3.90;1.35;;;12.70;99.90;;;;;;4891591;29;20036;-77
2021/09/18 02:19:51;;;;;;;4.25;1.08;;;12.60;99.90;;;;;;4891684;29;20069;-77
2021/09/18 02:22:17;;;;;;;2.10;1.30;;;12.60;99.90;;;;;;4891898;29;20048;-76
2021/09/18 02:24:43;;;;;;;1.73;0.93;;;12.60;99.90;;;;;;4891442;29;20358;-76
2021/09/18 02:27:08;;;;;;;1.05;0.73;;;12.50;99.90;;;;;;4891704;29;20045;-74
2021/09/18 02:29:34;;;;;;;2.05;1.05;;;12.50;99.90;;;;;;4891564;29;20029;-76
2021/09/18 02:31:59;;;;;;;1.55;0.93;;;12.50;99.90;;;;;;4889781;29;20029;-75
2021/09/18 02:34:25;;;;;;;5.50;1.45;;;12.60;99.90;;;;;;4891411;29;20036;-76
2021/09/18 02:36:51;;;;;;;3.35;1.23;;;12.50;99.90;;;;;;4890007;29;20031;-75
2021/09/18 02:39:16;;;;;;;2.83;1.40;;;12.50;99.90;;;;;;4890883;29;20113;-77
2021/09/18 02:41:42;;;;;;;3.65;1.33;;;12.50;99.90;;;;;;4890100;29;20036;-76
2021/09/18 02:44:08;;;;;;;1.55;0.80;;;12.60;99.90;;;;;;4891392;29;20084;-76
2021/09/18 02:46:33;;;;;;;2.95;1.65;;;12.50;99.90;;;;;;4891010;29;20033;-77
2021/09/18 02:48:59;;;;;;;1.48;0.95;;;12.50;99.90;;;;;;4891262;29;20120;-78
2021/09/18 02:51:25;;;;;;;2.42;1.05;;;12.50;99.90;;;;;;4890915;29;20029;-76
2021/09/18 02:53:50;;;;;;;1.70;1.15;;;12.60;99.90;;;;;;4891002;29;20029;-77
2021/09/18 02:56:17;;;;;;;2.65;1.27;;;12.60;99.90;;;;;;4890734;29;20038;-75
2021/09/18 02:58:42;;;;;;;1.45;0.80;;;12.60;99.90;;;;;;4890892;29;20048;-78
2021/09/18 03:01:08;;;;;;;4.95;1.63;;;12.60;99.90;;;;;;4891230;29;20037;-75
2021/09/18 03:03:33;;;;;;;2.72;1.20;;;12.70;99.90;;;;;;4889710;29;20033;-76
2021/09/18 03:05:59;;;;;;;2.28;1.00;;;12.70;99.90;;;;;;4889372;29;20025;-75
2021/09/18 03:08:25;;;;;;;2.67;0.77;;;12.70;99.90;;;;;;4890901;29;20367;-76
2021/09/18 03:10:52;;;;;;;2.30;1.42;;;12.70;99.90;;;;;;4890962;29;20033;-75
2021/09/18 03:13:18;;;;;;;1.27;0.85;;;12.80;99.90;;;;;;4890775;29;20025;-77
2021/09/18 03:15:44;;;;;;;0.85;0.60;;;12.80;99.90;;;;;;4889646;29;20053;-76
2021/09/18 03:18:10;;;;;;;1.63;0.85;;;12.80;99.90;;;;;;4890882;29;20037;-77
2021/09/18 03:20:35;;;;;;;1.05;0.80;;;12.80;99.90;;;;;;4890298;29;20116;-76
2021/09/18 03:23:01;;;;;;;1.35;0.73;;;12.80;99.90;;;;;;4889458;29;20033;-75
2021/09/18 03:25:26;;;;;;;1.30;1.02;;;12.80;99.90;;;;;;4890549;29;20044;-75
2021/09/18 03:27:52;;;;;;;3.88;1.40;;;12.80;99.90;;;;;;4890439;29;20044;-75
2021/09/18 03:30:18;;;;;;;1.63;1.00;;;12.80;99.90;;;;;;4890860;29;20041;-77
2021/09/18 03:32:43;;;;;;;1.45;0.98;;;12.70;99.90;;;;;;4890887;29;20029;-76
2021/09/18 03:35:09;;;;;;;1.15;0.80;;;12.70;99.90;;;;;;4890244;29;20072;-75
2021/09/18 03:37:35;;;;;;;2.22;1.23;;;12.60;99.90;;;;;;4890704;29;20068;-75
2021/09/18 03:40:05;;;;;;;4.55;1.30;;;12.60;99.90;;;;;;4888820;29;20561;-75
2021/09/18 03:42:31;;;;;;;2.13;1.02;;;12.60;99.90;;;;;;4888792;29;20033;-77
2021/09/18 03:44:56;;;;;;;2.85;1.38;;;12.60;99.90;;;;;;4890641;29;20029;-75
2021/09/18 03:47:22;;;;;;;2.78;1.40;;;12.60;99.90;;;;;;4890398;29;20029;-77
2021/09/18 03:49:48;;;;;;;2.30;1.00;;;12.60;99.90;;;;;;4890551;29;20029;-75
2021/09/18 03:52:14;;;;;;;6.25;1.25;;;12.70;99.90;;;;;;4890644;29;20053;-76
2021/09/18 03:54:40;;;;;;;11.07;1.80;;;12.70;99.90;;;;;;4890084;29;20057;-75
2021/09/18 03:57:05;;;;;;;2.97;1.20;;;12.80;99.90;;;;;;4889064;29;20033;-75
2021/09/18 03:59:31;;;;;;;4.93;1.45;;;12.70;99.90;;;;;;4890306;29;20045;-75
2021/09/18 04:01:56;;;;;;;2.20;0.82;;;12.70;99.90;;;;;;4888817;29;20029;-76
2021/09/18 04:04:22;;;;;;;2.22;0.88;;;12.70;99.90;;;;;;4890242;29;20033;-76
2021/09/18 04:06:48;;;;;;;2.47;1.25;;;12.80;99.90;;;;;;4892375;29;20049;-77
2021/09/18 04:09:16;;;;;;;1.85;1.00;;;12.80;99.90;;;;;;4894167;29;20033;-77
2021/09/18 04:11:42;;;;;;;1.73;1.00;;;12.80;99.90;;;;;;4894229;29;20044;-76
2021/09/18 04:14:07;;;;;;;0.98;0.65;;;12.80;99.90;;;;;;4892657;29;20041;-76
2021/09/18 04:16:33;;;;;;;2.53;1.10;;;12.90;99.90;;;;;;4893687;29;20029;-76
2021/09/18 04:18:59;;;;;;;8.75;1.23;;;12.90;99.90;;;;;;4893920;29;20045;-75
2021/09/18 04:21:25;;;;;;;2.25;1.08;;;12.90;99.90;;;;;;4892600;29;20045;-75
2021/09/18 04:23:50;;;;;;;1.40;1.00;;;12.90;99.90;;;;;;4893647;29;20025;-76
2021/09/18 04:26:16;;;;;;;2.63;1.20;;;12.90;99.90;;;;;;4892603;29;20025;-75
2021/09/18 04:28:42;;;;;;;2.75;1.30;;;13.00;99.90;;;;;;4893888;29;20029;-74
2021/09/18 04:31:08;;;;;;;1.85;1.08;;;13.00;99.90;;;;;;4893427;29;20041;-75
2021/09/18 04:33:34;;;;;;;2.15;0.95;;;13.00;99.90;;;;;;4892384;29;20036;-76
2021/09/18 04:36:00;;;;;;;2.97;1.00;;;13.00;99.90;;;;;;4892186;29;20074;-75
2021/09/18 04:38:25;;;;;;;2.20;1.40;;;13.00;99.90;;;;;;4893195;29;20128;-75
2021/09/18 04:40:51;;;;;;;1.67;1.02;;;13.00;99.90;;;;;;4893495;29;20077;-76
2021/09/18 04:43:17;;;;;;;2.20;1.00;;;12.90;99.90;;;;;;4893622;29;20040;-78
2021/09/18 04:45:43;;;;;;;3.22;1.67;;;12.90;99.90;;;;;;4891732;29;20033;-76
2021/09/18 04:48:08;;;;;;;2.30;1.35;;;12.90;99.90;;;;;;4893523;29;20037;-76
2021/09/18 04:50:34;;;;;;;2.50;1.20;;;12.90;99.90;;;;;;4891872;29;20041;-77
2021/09/18 04:52:59;;;;;;;5.07;1.10;;;12.90;99.90;;;;;;4891704;29;20071;-79
2021/09/18 04:55:25;;;;;;;3.13;1.42;;;12.90;99.90;;;;;;4893105;29;20029;-79
2021/09/18 04:57:52;;;;;;;3.15;1.42;;;12.90;99.90;;;;;;4891583;29;20029;-77
2021/09/18 05:00:17;;;;;;;1.83;1.10;;;12.90;99.90;;;;;;4891742;29;20498;-77
2021/09/18 05:02:43;;;;;;;1.20;0.68;;;12.90;99.90;;;;;;4893350;29;20141;-76
2021/09/18 05:05:09;;;;;;;2.45;1.38;;;12.90;99.90;;;;;;4893052;29;20081;-78
2021/09/18 05:07:34;;;;;;;3.33;1.30;;;12.90;99.90;;;;;;4892926;29;20054;-79
2021/09/18 05:10:00;;;;;;;2.35;1.30;;;12.90;99.90;;;;;;4891572;29;20036;-78
2021/09/18 05:12:25;;;;;;;2.85;1.00;;;12.90;99.90;;;;;;4892788;29;20028;-77
2021/09/18 05:14:51;;;;;;;2.25;1.23;;;12.80;99.90;;;;;;4891013;29;20040;-76
2021/09/18 05:17:17;;;;;;;1.77;1.00;;;12.90;99.90;;;;;;4892018;29;20037;-76
2021/09/18 05:19:43;;;;;;;2.10;1.08;;;12.90;99.90;;;;;;4890814;29;20044;-78
2021/09/18 05:22:08;;;;;;;1.80;1.23;;;12.90;99.90;;;;;;4892613;29;20029;-76
2021/09/18 05:24:34;;;;;;;3.28;1.13;;;12.90;99.90;;;;;;4891542;29;20164;-76
2021/09/18 05:27:00;;;;;;;1.02;0.73;;;12.90;99.90;;;;;;4892374;29;20063;-75
2021/09/18 05:29:26;;;;;;;6.63;1.52;;;12.90;99.90;;;;;;4892386;29;20029;-76
2021/09/18 05:31:52;;;;;;;2.42;1.50;;;13.00;99.90;;;;;;4892711;29;20563;-77
2021/09/18 05:34:17;;;;;;;3.22;1.50;;;13.00;99.90;;;;;;4888950;29;20021;-76
2021/09/18 05:36:43;;;;;;;4.95;1.65;;;13.10;99.90;;;;;;4881863;29;20033;-75
2021/09/18 05:39:09;;;;;;;2.08;1.13;;;13.10;99.90;;;;;;4875254;29;20061;-76
2021/09/18 05:41:35;;;;;;;3.15;1.60;;;13.20;99.90;;;;;;4878812;29;20045;-77
2021/09/18 05:44:00;;;;;;;1.33;1.05;;;13.10;99.90;;;;;;4888120;29;20048;-76
2021/09/18 05:46:26;;;;;;;2.97;1.48;;;13.20;99.90;;;;;;4883420;29;20040;-76
2021/09/18 05:48:52;;;;;;;2.03;1.17;;;13.20;99.90;;;;;;4887447;29;20036;-75
2021/09/18 05:51:18;;;;;;;1.58;1.20;;;13.20;99.90;;;;;;4881094;29;20037;-77
2021/09/18 05:53:43;;;;;;;4.35;1.50;;;13.30;99.90;;;;;;4880423;29;20037;-76
2021/09/18 05:56:09;;;;;;;1.83;1.20;;;13.30;99.90;;;;;;4885528;29;20047;-76
2021/09/18 05:58:35;;;;;;;2.45;1.33;;;13.30;99.90;;;;;;4892306;29;20040;-76
2021/09/18 06:01:01;;;;;;;2.15;1.23;;;13.40;99.90;;;;;;4890043;29;20085;-76
2021/09/18 06:03:27;;;;;;;2.25;1.00;;;13.40;99.90;;;;;;4888170;29;20026;-75
2021/09/18 06:05:52;;;;;;;1.02;0.68;;;13.50;99.90;;;;;;4889963;29;20029;-76
2021/09/18 06:08:18;;;;;;;3.55;1.55;;;13.40;99.90;;;;;;4888492;29;20037;-76
2021/09/18 06:10:43;;;;;;;1.67;1.40;;;13.40;99.90;;;;;;4890648;29;20033;-76
2021/09/18 06:13:09;;;;;;;2.42;1.30;;;13.50;99.90;;;;;;4891670;29;20048;-75
2021/09/18 06:15:35;;;;;;;2.42;1.50;;;13.50;99.90;;;;;;4886725;29;20033;-75
2021/09/18 06:18:00;;;;;;;2.13;1.23;;;13.60;99.90;;;;;;4886429;29;20085;-77
2021/09/18 06:20:26;;;;;;;2.22;0.98;;;13.60;99.90;;;;;;4881479;29;20064;-75
2021/09/18 06:22:51;;;;;;;3.28;1.83;;;13.70;99.90;;;;;;4881877;29;20877;-77
2021/09/18 06:25:17;;;;;;;2.00;1.20;;;13.60;99.90;;;;;;4881499;29;20038;-76
2021/09/18 06:27:44;;;;;;;2.25;1.45;;;13.70;99.90;;;;;;4880694;29;20032;-77
2021/09/18 06:30:10;;;;;;;2.45;1.25;;;13.70;99.90;;;;;;4871601;29;20037;-76
2021/09/18 06:32:36;;;;;;;2.33;1.10;;;13.70;99.90;;;;;;4871320;29;20124;-75
2021/09/18 06:35:02;;;;;;;1.65;1.20;;;13.80;99.90;;;;;;4873706;29;20395;-75
2021/09/18 06:37:28;;;;;;;1.90;1.27;;;13.80;99.90;;;;;;4889393;29;20124;-76
2021/09/18 06:39:54;;;;;;;3.08;1.48;;;13.80;99.90;;;;;;4890816;29;20057;-75
2021/09/18 06:42:20;;;;;;;11.02;1.55;;;13.80;99.90;;;;;;4891555;29;20037;-76
2021/09/18 06:44:47;;;;;;;3.47;1.60;;;13.90;99.90;;;;;;4891262;29;20037;-76
2021/09/18 06:47:12;;;;;;;6.47;1.60;;;13.90;99.90;;;;;;4890370;29;20029;-75
2021/09/18 06:49:38;;;;;;;2.65;1.48;;;14.00;99.90;;;;;;4891082;29;20052;-76
2021/09/18 06:52:05;;;;;;;2.63;1.58;;;14.00;99.90;;;;;;4890907;29;20025;-75
2021/09/18 06:54:30;;;;;;;4.07;1.65;;;14.00;99.90;;;;;;4889355;29;20025;-75
2021/09/18 06:56:56;;;;;;;3.63;1.63;;;14.10;99.90;;;;;;4890911;29;20533;-74
2021/09/18 06:59:22;;;;;;;2.65;1.60;;;14.20;99.90;;;;;;4890871;29;20045;-75
2021/09/18 07:01:48;;;;;;;15.35;1.92;;;14.20;99.90;;;;;;4891133;29;20029;-75
2021/09/18 07:04:16;;;;;;;2.20;1.60;;;14.30;99.90;;;;;;4891209;29;20029;-76
2021/09/18 07:06:42;;;;;;;2.42;1.50;;;14.30;99.90;;;;;;4890931;29;20045;-74
2021/09/18 07:09:08;;;;;;;4.40;1.70;;;14.40;99.90;;;;;;4891001;29;20040;-77
2021/09/18 07:11:33;;;;;;;13.57;1.95;;;14.40;99.90;;;;;;4889259;29;20041;-74
2021/09/18 07:13:59;;;;;;;2.83;1.70;;;14.50;99.90;;;;;;4889584;29;20044;-76
2021/09/18 07:16:24;;;;;;;3.75;1.85;;;14.60;99.90;;;;;;4889531;29;20025;-75
2021/09/18 07:18:51;;;;;;;1.98;1.05;;;14.60;99.90;;;;;;4890293;29;20116;-75
2021/09/18 07:21:16;;;;;;;4.75;2.35;;;14.70;99.90;;;;;;4890816;29;20060;-76
2021/09/18 07:23:42;;;;;;;2.80;1.75;;;14.70;99.90;;;;;;4890999;29;20084;-75
2021/09/18 07:26:08;;;;;;;3.33;1.98;;;14.70;99.90;;;;;;4890223;29;20477;-75
2021/09/18 07:28:34;;;;;;;3.92;1.90;;;14.80;99.90;;;;;;4890967;29;20033;-74
2021/09/18 07:31:00;;;;;;;5.40;2.20;;;14.80;99.90;;;;;;4889593;29;20053;-75
2021/09/18 07:33:25;;;;;;;2.90;1.55;;;14.80;99.90;;;;;;4890169;29;20036;-75
2021/09/18 07:35:51;;;;;;;3.83;2.17;;;14.90;99.90;;;;;;4890749;29;20561;-75
2021/09/18 07:38:16;;;;;;;5.45;2.63;;;15.00;99.90;;;;;;4890445;29;20029;-74
2021/09/18 07:40:46;;;;;;;5.43;2.83;;;14.90;99.90;;;;;;4889784;29;20052;-76
2021/09/18 07:43:12;;;;;;;5.32;2.83;;;15.00;99.90;;;;;;4890906;29;20029;-75
2021/09/18 07:45:40;;;;;;;5.38;2.92;;;15.00;99.90;;;;;;4888609;29;20029;-74
2021/09/18 07:48:07;;;;;;;4.55;2.65;;;15.10;99.90;;;;;;4888133;29;20549;-75
2021/09/18 07:50:33;;;;;;;6.57;2.67;;;15.10;99.90;;;;;;4879806;29;20036;-77
2021/09/18 07:52:58;;;;;;;5.78;2.55;;;15.10;99.90;;;;;;4874439;29;20034;-75
2021/09/18 07:55:26;;;;;;;5.60;2.38;;;15.20;99.90;;;;;;4887006;29;20033;-77
2021/09/18 07:57:52;;;;;;;5.45;2.65;;;15.20;99.90;;;;;;4889707;29;20025;-76
2021/09/18 08:00:18;;;;;;;5.43;2.60;;;15.30;99.90;;;;;;4889602;29;20124;-77
2021/09/18 08:02:45;;;;;;;6.72;3.20;;;15.30;99.90;;;;;;4888572;29;20029;-76
2021/09/18 08:05:12;;;;;;;8.52;3.30;;;15.30;99.90;;;;;;4889077;29;20033;-76
2021/09/18 08:07:38;;;;;;;7.53;2.88;;;15.40;99.90;;;;;;4884976;29;20040;-77
2021/09/18 08:10:08;;;;;;;7.07;3.17;;;15.50;99.90;;;;;;4879104;29;20029;-76
2021/09/18 08:12:35;;;;;;;7.93;2.53;;;15.60;99.90;;;;;;4871254;29;20029;-76
2021/09/18 08:15:01;;;;;;;4.82;3.00;;;15.70;99.90;;;;;;4881465;29;20048;-76
2021/09/18 08:17:29;;;;;;;2.58;1.85;;;15.90;99.90;;;;;;4885286;29;20036;-77
2021/09/18 08:19:58;;;;;;;7.38;2.78;;;15.90;99.90;;;;;;4883003;29;20045;-75
2021/09/18 08:22:24;;;;;;;5.45;2.60;;;16.10;99.90;;;;;;4872279;29;20040;-75
2021/09/18 08:24:54;;;;;;;4.65;2.00;;;16.20;99.90;;;;;;4881545;29;20030;-76
2021/09/18 08:27:21;;;;;;;3.83;2.40;;;16.20;99.90;;;;;;4877859;29;20040;-78
2021/09/18 08:29:46;;;;;;;4.25;2.42;;;16.40;99.90;;;;;;4879810;29;20065;-75
2021/09/18 08:32:12;;;;;;;4.93;2.35;;;16.50;99.90;;;;;;4878959;29;20507;-75
2021/09/18 08:34:38;;;;;;;4.90;2.40;;;16.60;99.90;;;;;;4879665;29;20041;-76
2021/09/18 08:37:03;;;;;;;4.68;1.95;;;16.70;99.90;;;;;;4888343;29;20033;-76
2021/09/18 08:39:29;;;;;;;3.75;2.13;;;16.70;99.90;;;;;;4889526;29;20060;-75
2021/09/18 08:41:55;;;;;;;3.70;1.98;;;16.70;99.90;;;;;;4889548;29;20037;-75
2021/09/18 08:44:20;;;;;;;4.38;2.05;;;16.80;99.90;;;;;;4890034;29;20025;-75
2021/09/18 08:46:48;;;;;;;6.55;2.30;;;16.80;99.90;;;;;;4888922;29;20029;-76
2021/09/18 08:49:15;;;;;;;3.08;1.90;;;16.80;99.90;;;;;;4888571;29;20033;-75
2021/09/18 08:51:43;;;;;;;2.65;1.65;;;16.90;99.90;;;;;;4889940;29;20072;-76
2021/09/18 08:54:09;;;;;;;3.05;1.95;;;16.90;99.90;;;;;;4890971;29;20069;-74
2021/09/18 08:56:34;;;;;;;3.60;1.80;;;16.90;99.90;;;;;;4892876;29;20029;-75
2021/09/18 08:59:00;;;;;;;2.55;1.33;;;17.10;99.90;;;;;;4882904;29;20120;-76
2021/09/18 09:01:26;;;;;;;3.00;1.73;;;17.10;99.90;;;;;;4887786;29;20056;-76
2021/09/18 09:04:07;;;;;;;3.35;1.55;;;17.30;99.90;;;;;;4888529;29;20049;-76
2021/09/18 09:06:50;;;;;;;2.72;1.90;;;17.50;99.90;;;;;;4898334;29;20054;-76
2021/09/18 09:09:16;;;;;;;2.22;1.20;;;17.70;99.90;;;;;;4892710;29;20021;-76
2021/09/18 09:11:53;;;;;;;3.63;1.40;;;17.80;99.90;;;;;;4887356;29;20033;-75
2021/09/18 09:14:20;;;;;;;2.67;1.40;;;17.90;99.90;;;;;;4886855;29;20037;-77
2021/09/18 09:17:04;;;;;;;1.40;0.90;;;17.90;99.90;;;;;;4885071;29;20052;-76
2021/09/18 09:19:40;;;;;;;2.65;1.50;;;17.90;99.90;;;;;;4889868;29;20045;-76
2021/09/18 09:22:07;;;;;;;5.47;1.63;;;17.90;99.90;;;;;;4892599;29;20041;-77
2021/09/18 09:24:32;;;;;;;2.13;1.48;;;18.00;99.90;;;;;;4892447;29;20076;-76
2021/09/18 09:27:11;;;;;;;4.03;1.77;;;17.70;99.90;;;;;;4891250;29;20033;-77
2021/09/18 09:29:55;;;;;;;2.53;1.58;;;17.70;99.90;;;;;;4892307;29;20036;-77
2021/09/18 09:32:38;;;;;;;2.50;1.48;;;17.60;99.90;;;;;;4892434;29;20036;-75
2021/09/18 09:35:13;;;;;;;2.15;1.38;;;17.70;99.90;;;;;;4892466;29;20149;-77
2021/09/18 09:38:00;;;;;;;1.73;0.88;;;18.00;99.90;;;;;;4882670;29;20044;-77
2021/09/18 09:40:35;;;;;;;2.25;1.27;;;18.10;99.90;;;;;;4875377;29;20105;-77
2021/09/18 09:43:01;;;;;;;8.10;1.58;;;18.30;99.90;;;;;;4874510;29;20026;-76
2021/09/18 09:45:27;;;;;;;2.03;1.17;;;18.30;99.90;;;;;;4874109;29;20037;-76
2021/09/18 09:48:13;;;;;;;3.63;1.33;;;18.40;99.90;;;;;;4873316;29;20066;-78
2021/09/18 09:50:41;;;;;;;5.60;1.40;;;18.70;99.90;;;;;;4872831;29;20040;-76
2021/09/18 09:53:26;;;;;;;3.00;0.98;;;18.80;99.90;;;;;;4881851;29;20044;-76
2021/09/18 09:55:56;;;;;;;1.85;1.20;;;19.00;99.90;;;;;;4880761;29;20040;-77
2021/09/18 09:58:22;;;;;;;2.35;1.20;;;19.10;99.90;;;;;;4885277;29;20089;-77
2021/09/18 10:00:51;;;;;;;1.73;1.05;;;19.10;99.90;;;;;;4887044;29;20506;-75
2021/09/18 10:03:25;;;;;;;1.20;0.70;;;19.10;99.90;;;;;;4873693;29;20435;-76
2021/09/18 10:05:52;;;;;;;3.00;0.90;;;18.90;99.90;;;;;;4904024;29;20072;-77
2021/09/18 10:08:23;;;;;;;2.35;1.10;;;18.70;99.90;;;;;;4888818;29;20047;-76
2021/09/18 10:10:50;;;;;;;1.30;0.70;;;18.50;99.90;;;;;;4877772;29;20057;-76
2021/09/18 10:13:24;;;;;;;2.40;1.05;;;18.40;99.90;;;;;;4889999;29;20029;-77
2021/09/18 10:15:51;;;;;;;1.92;0.98;;;18.30;99.90;;;;;;4891480;29;20502;-76
2021/09/18 10:18:17;;;;;;;2.88;1.05;;;18.20;99.90;;;;;;4884323;29;20085;-76
2021/09/18 10:23:24;;;;;;;2.50;0.98;;;18.20;99.90;;;;;;4890081;29;20449;-79
2021/09/18 10:25:59;;;;;;;1.33;0.88;;;18.20;99.90;;;;;;4889311;29;20093;-75
2021/09/18 10:28:40;;;;;;;2.78;1.08;;;18.20;99.90;;;;;;4884701;29;20041;-74
2021/09/18 10:31:30;;;;;;;3.03;1.27;;;18.20;99.90;;;;;;4884628;29;20104;-76
2021/09/18 10:33:56;;;;;;;1.23;0.77;;;18.20;99.90;;;;;;4878926;29;20132;-75
2021/09/18 10:36:27;;;;;;;1.85;1.20;;;18.20;99.90;;;;;;4885565;29;20053;-77
2021/09/18 10:39:10;;;;;;;1.17;0.82;;;18.20;99.90;;;;;;4883673;29;20048;-74
2021/09/18 10:41:42;;;;;;;1.70;0.95;;;18.20;99.90;;;;;;4885096;29;20041;-74
2021/09/18 10:44:07;;;;;;;2.42;1.25;;;18.30;99.90;;;;;;4886490;29;20038;-74
2021/09/18 10:46:52;;;;;;;1.98;0.90;;;18.30;99.90;;;;;;4886802;29;20062;-76
2021/09/18 10:49:31;;;;;;;4.00;1.15;;;18.30;99.90;;;;;;4881997;29;20039;-75
2021/09/18 10:52:29;;;;;;;2.35;1.20;;;18.30;99.90;;;;;;4872210;29;20030;-75
2021/09/18 10:55:10;;;;;;;2.35;1.25;;;18.40;99.90;;;;;;4871176;29;20054;-75
2021/09/18 10:57:38;;;;;;;3.35;1.58;;;18.50;99.90;;;;;;4872013;29;20089;-75
2021/09/18 11:00:25;;;;;;;2.38;1.15;;;18.50;99.90;;;;;;4870773;29;20070;-75
2021/09/18 11:03:02;;;;;;;3.10;1.13;;;18.50;99.90;;;;;;4861135;29;20485;-75
2021/09/18 11:05:28;;;;;;;2.25;1.30;;;18.50;99.90;;;;;;4871929;29;20026;-76
2021/09/18 11:08:02;;;;;;;1.60;0.88;;;18.60;99.90;;;;;;4872262;29;20062;-77
2021/09/18 11:10:30;;;;;;;;;;;18.60;99.90;;;;;;4878615;29;20029;-75
2021/09/18 11:13:08;;;;;;;1.88;0.93;;;18.60;99.90;;;;;;4890148;29;19907;-76
2021/09/18 11:15:40;;;;;;;2.92;1.13;;;18.50;99.90;;;;;;4890399;29;20044;-76
2021/09/18 11:18:08;;;;;;;2.45;1.30;;;18.60;99.90;;;;;;4890818;29;20037;-76
2021/09/18 11:20:35;;;;;;;1.73;1.20;;;18.70;99.90;;;;;;4887761;29;20051;-77
2021/09/18 11:23:02;;;;;;;3.90;1.65;;;18.60;99.90;;;;;;4889519;29;20486;-76
2021/09/18 11:25:34;;;;;;;2.75;1.42;;;18.70;99.90;;;;;;4890825;29;20028;-76
2021/09/18 11:28:07;;;;;;;2.85;1.60;;;18.80;99.90;;;;;;4891092;29;20405;-74
2021/09/18 11:30:49;;;;;;;2.37;1.27;;;18.80;99.90;;;;;;4889599;29;20043;-76
2021/09/18 11:33:22;;;;;;;1.63;1.27;;;18.90;99.90;;;;;;4891359;29;20033;-76
2021/09/18 11:35:54;;;;;;;1.07;0.87;;;18.80;99.90;;;;;;4891025;29;20040;-76
2021/09/18 11:38:26;;;;;;;2.30;1.25;;;18.80;99.90;;;;;;4890599;29;20097;-75
2021/09/18 11:41:08;;;;;;;5.45;1.33;;;18.70;99.90;;;;;;4890728;29;20045;-75
2021/09/18 11:43:35;;;;;;;1.95;1.48;;;18.80;99.90;;;;;;4889489;29;20029;-75
2021/09/18 11:46:00;;;;;;;1.95;1.20;;;18.80;99.90;;;;;;4890365;29;20037;-75
2021/09/18 11:48:31;;;;;;;2.42;1.42;;;18.80;99.90;;;;;;4890903;29;20033;-76
2021/09/18 11:50:57;;;;;;;2.00;1.15;;;18.70;99.90;;;;;;4890671;29;20059;-75
2021/09/18 11:53:23;;;;;;;3.35;1.50;;;18.70;99.90;;;;;;4889398;29;20053;-75
2021/09/18 11:55:50;;;;;;;3.38;1.70;;;18.60;99.90;;;;;;4890832;29;20029;-76
2021/09/18 11:58:26;;;;;;;2.22;1.40;;;18.70;99.90;;;;;;4890416;29;20064;-76
2021/09/18 12:00:53;;;;;;;2.00;1.20;;;18.70;99.90;;;;;;4890329;29;20037;-75
2021/09/18 12:03:31;;;;;;;2.55;1.40;;;18.70;99.90;;;;;;4891164;29;20021;-77
2021/09/18 12:05:58;;;;;;;2.25;1.10;;;18.70;99.90;;;;;;4890273;29;20033;-76
2021/09/18 12:08:27;;;;;;;2.20;1.35;;;18.80;99.90;;;;;;4890289;29;20034;-76
2021/09/18 12:10:57;;;;;;;2.78;1.30;;;18.70;99.90;;;;;;4890425;29;20447;-78
2021/09/18 12:13:23;;;;;;;4.00;1.38;;;18.80;99.90;;;;;;4890133;29;20037;-76
2021/09/18 12:15:58;;;;;;;1.92;1.20;;;18.90;99.90;;;;;;4889301;29;20036;-76
2021/09/18 12:18:30;;;;;;;2.53;1.00;;;19.00;99.90;;;;;;4890545;29;20090;-78
2021/09/18 12:20:58;;;;;;;3.83;0.90;;;19.10;99.90;;;;;;4889708;29;20075;-77
2021/09/18 12:23:25;;;;;;;2.20;1.42;;;19.10;99.90;;;;;;4890387;29;20120;-76
2021/09/18 12:25:54;;;;;;;2.20;1.10;;;19.10;99.90;;;;;;4889071;29;20033;-77
2021/09/18 12:28:25;;;;;;;1.38;1.10;;;19.10;99.90;;;;;;4891583;29;20037;-78
2021/09/18 12:30:54;;;;;;;1.00;0.93;;;19.20;99.90;;;;;;4893004;29;20092;-76
2021/09/18 12:33:33;;;;;;;2.35;1.35;;;19.20;99.90;;;;;;4888814;29;20120;-77
2021/09/18 12:36:14;;;;;;;1.58;1.00;;;19.10;99.90;;;;;;4889839;29;20041;-77
2021/09/18 12:38:42;;;;;;;1.15;0.80;;;19.10;99.90;;;;;;4891392;29;20410;-77
2021/09/18 12:41:12;;;;;;;2.13;1.20;;;19.00;99.90;;;;;;4885444;29;20033;-76
2021/09/18 12:43:38;;;;;;;1.75;1.27;;;19.00;99.90;;;;;;4883483;29;20109;-77
2021/09/18 12:46:16;;;;;;;1.30;0.98;;;19.00;99.90;;;;;;4890558;29;20101;-77
2021/09/18 12:48:42;;;;;;;2.38;1.48;;;19.10;99.90;;;;;;4888369;29;20037;-76
2021/09/18 12:51:16;;;;;;;3.47;0.80;;;19.00;99.90;;;;;;4880045;29;20042;-76
2021/09/18 12:53:45;;;;;;;1.90;1.00;;;19.10;99.90;;;;;;4886842;29;20061;-77